Time;durP1;ratioP1;P1;durP2;ratioP2;P2;SDS_P1;SDS_P2;PMS_P1;PMS_P2;Temp;Humidity;BMP_temperature;BMP_pressure;BME280_temperature;BME280_humidity;BME280_pressure;Samples;Min_cycle;Max_cycle;Signal;HPM_P1;HPM_P2
2021/08/08 00:01:40;;;;;;;1.90;0.40;;;16.80;80.40;;;15.69;79.09;95534.06;4961922;28;20032;-63
2021/08/08 00:04:06;;;;;;;2.97;0.50;;;16.70;80.60;;;15.65;78.80;95538.25;4952986;28;20050;-63
2021/08/08 00:06:32;;;;;;;1.00;0.30;;;16.70;80.50;;;15.61;79.42;95532.56;4921252;28;20036;-63
2021/08/08 00:08:57;;;;;;;2.17;0.35;;;16.60;80.70;;;15.57;78.92;95539.34;4990379;28;20038;-64
2021/08/08 00:11:23;;;;;;;3.88;0.40;;;16.60;80.60;;;15.53;78.85;95535.56;4947641;28;20035;-64
2021/08/08 00:13:49;;;;;;;1.75;0.32;;;16.60;80.80;;;15.52;79.42;95528.66;4963692;28;20529;-63
2021/08/08 00:16:15;;;;;;;0.90;0.50;;;16.50;81.10;;;15.49;78.61;95537.06;4937916;28;20434;-63
2021/08/08 00:18:41;;;;;;;1.60;0.40;;;16.50;81.20;;;15.46;78.98;95530.41;4953874;28;20125;-64
2021/08/08 00:21:07;;;;;;;2.65;0.63;;;16.50;81.40;;;15.44;78.79;95529.03;4933251;28;20038;-64
2021/08/08 00:23:33;;;;;;;0.70;0.30;;;16.50;81.30;;;15.41;79.75;95517.06;4950020;28;20626;-63
2021/08/08 00:25:59;;;;;;;3.95;0.45;;;16.50;81.50;;;15.40;79.31;95514.63;4935369;29;20058;-64
2021/08/08 00:28:24;;;;;;;2.15;0.50;;;16.40;81.10;;;15.35;79.22;95538.34;4926539;28;20035;-64
2021/08/08 00:30:50;;;;;;;0.80;0.47;;;16.40;81.50;;;15.36;79.33;95516.91;4968661;28;20047;-63
2021/08/08 00:33:17;;;;;;;2.78;1.02;;;16.50;81.70;;;15.40;79.02;95496.09;4957080;28;20508;-63
2021/08/08 00:35:43;;;;;;;1.13;0.30;;;16.60;81.70;;;15.40;79.91;95514.63;4938856;28;20070;-63
2021/08/08 00:38:09;;;;;;;0.82;0.35;;;16.60;81.30;;;15.45;80.68;95538.59;4956832;28;20047;-64
2021/08/08 00:40:35;;;;;;;0.70;0.35;;;16.70;81.70;;;15.48;80.32;95507.13;4937466;28;20043;-63
2021/08/08 00:43:01;;;;;;;4.00;0.22;;;16.70;81.40;;;15.50;80.52;95514.84;4969155;28;20035;-63
2021/08/08 00:45:27;;;;;;;1.55;0.50;;;16.80;81.30;;;15.49;79.82;95518.53;4916499;28;20043;-63
2021/08/08 00:47:52;;;;;;;2.03;0.30;;;16.60;80.80;;;15.49;80.62;95498.13;4930441;29;20038;-64
2021/08/08 00:50:18;;;;;;;0.88;0.40;;;16.70;81.50;;;15.47;79.44;95520.59;4954598;28;20032;-63
2021/08/08 00:52:44;;;;;;;2.30;0.40;;;16.60;81.00;;;15.46;80.07;95513.69;4947946;28;20395;-64
2021/08/08 00:55:10;;;;;;;3.25;0.45;;;16.60;81.00;;;15.49;80.88;95518.53;4972916;28;20468;-64
2021/08/08 00:57:36;;;;;;;0.63;0.30;;;16.70;81.50;;;15.49;80.52;95508.72;4984550;28;20040;-63
2021/08/08 01:00:04;;;;;;;3.25;0.60;;;16.70;82.10;;;15.49;80.60;95498.13;4983528;28;20412;-63
2021/08/08 01:02:31;;;;;;;3.42;0.45;;;16.70;82.20;;;15.50;80.57;95498.94;4955413;28;20512;-64
2021/08/08 01:05:09;;;;;;;0.98;0.40;;;16.70;82.20;;;15.53;81.60;95501.09;4927045;29;20039;-63
2021/08/08 01:07:44;;;;;;;3.58;0.50;;;16.80;82.30;;;15.51;81.98;95500.53;4953074;28;20119;-63
2021/08/08 01:10:10;;;;;;;2.38;0.40;;;16.70;82.20;;;15.53;80.81;95506.41;4983542;28;20042;-64
2021/08/08 01:12:38;;;;;;;3.22;0.60;;;16.80;81.90;;;15.56;80.86;95524.50;4973725;28;20035;-64
2021/08/08 01:15:05;;;;;;;3.92;0.45;;;16.90;81.40;;;15.53;79.90;95535.56;4949578;28;20515;-63
2021/08/08 01:17:30;;;;;;;0.93;0.40;;;16.70;80.50;;;15.52;79.28;95547.22;4945294;28;20055;-62
2021/08/08 01:20:05;;;;;;;1.30;0.60;;;16.60;80.40;;;15.47;80.26;95547.09;4952241;28;20086;-63
2021/08/08 01:22:31;;;;;;;2.00;0.65;;;16.60;80.30;;;15.45;79.94;95554.50;4950202;28;20039;-62
2021/08/08 01:25:01;;;;;;;3.67;0.50;;;16.60;80.30;;;15.42;79.93;95571.66;4936857;28;20034;-63
2021/08/08 01:27:28;;;;;;;5.32;0.47;;;16.50;80.20;;;15.39;78.91;95573.94;4983442;28;20043;-63
2021/08/08 01:29:54;;;;;;;2.90;0.40;;;16.40;79.70;;;15.33;78.56;95573.03;4967465;28;20169;-63
2021/08/08 01:32:21;;;;;;;1.27;0.40;;;16.40;80.30;;;15.31;79.79;95560.03;4943678;28;20503;-64
2021/08/08 01:34:47;;;;;;;1.75;0.30;;;16.40;80.60;;;15.30;79.03;95558.41;4968445;28;20067;-63
2021/08/08 01:37:19;;;;;;;0.65;0.30;;;16.40;80.80;;;15.29;80.32;95563.94;4982321;28;20051;-63
2021/08/08 01:39:58;;;;;;;1.58;0.40;;;16.40;80.90;;;15.28;79.66;95555.19;4936929;28;20041;-63
2021/08/08 01:42:24;;;;;;;0.98;0.30;;;16.40;80.90;;;15.28;78.88;95571.09;4924644;29;20515;-63
2021/08/08 01:44:52;;;;;;;1.52;0.30;;;16.50;80.90;;;15.26;79.52;95565.22;4977112;28;20038;-63
2021/08/08 01:47:24;;;;;;;2.05;0.22;;;16.40;81.10;;;15.24;79.69;95548.75;4917823;28;20040;-63
2021/08/08 01:49:50;;;;;;;5.05;0.50;;;16.30;81.30;;;15.24;80.14;95543.44;4927639;28;20035;-64
2021/08/08 01:52:15;;;;;;;0.93;0.38;;;16.30;81.20;;;15.23;79.34;95536.53;4941138;28;20539;-64
2021/08/08 01:54:41;;;;;;;0.47;0.20;;;16.40;81.50;;;15.24;79.32;95542.63;4946849;28;20051;-63
2021/08/08 01:57:10;;;;;;;5.47;0.40;;;16.40;81.50;;;15.25;80.83;95544.25;4949077;28;20039;-66
2021/08/08 01:59:37;;;;;;;2.60;0.38;;;16.40;81.70;;;15.24;79.66;95546.09;4931826;28;20032;-63
2021/08/08 02:02:15;;;;;;;2.00;0.32;;;16.40;81.70;;;15.22;80.77;95550.81;4943443;28;20042;-63
2021/08/08 02:04:41;;;;;;;4.13;0.32;;;16.40;81.90;;;15.18;81.09;95554.97;4936003;28;20132;-63
2021/08/08 02:07:09;;;;;;;1.67;0.40;;;16.30;82.20;;;15.17;80.83;95556.00;4936874;28;20043;-65
2021/08/08 02:09:36;;;;;;;0.77;0.30;;;16.30;82.20;;;15.13;81.07;95557.47;4938879;28;20035;-64
2021/08/08 02:12:01;;;;;;;1.67;0.63;;;16.20;82.50;;;15.13;80.35;95568.06;4932839;28;20035;-63
2021/08/08 02:14:27;;;;;;;1.75;0.30;;;16.20;82.50;;;15.13;80.54;95565.44;4959870;28;20041;-64
2021/08/08 02:16:53;;;;;;;3.67;0.50;;;16.20;82.50;;;15.11;81.46;95567.50;4945346;28;20249;-64
2021/08/08 02:19:19;;;;;;;4.28;0.38;;;16.20;82.30;;;15.13;80.33;95567.28;4933880;28;20031;-64
2021/08/08 02:21:45;;;;;;;0.75;0.30;;;16.30;82.20;;;15.11;81.68;95575.44;4955766;28;20062;-64
2021/08/08 02:24:11;;;;;;;3.03;0.60;;;16.20;82.20;;;15.11;80.77;95570.16;4935438;28;20047;-63
2021/08/08 02:26:37;;;;;;;1.40;0.43;;;16.20;82.20;;;15.11;81.14;95577.28;4926862;29;20043;-62
2021/08/08 02:29:03;;;;;;;2.00;0.30;;;16.20;82.10;;;15.09;80.22;95587.31;4941331;28;20035;-62
2021/08/08 02:31:43;;;;;;;3.80;0.40;;;16.20;82.20;;;15.08;81.55;95591.00;4966706;28;20059;-62
2021/08/08 02:34:09;;;;;;;2.08;0.30;;;16.10;82.20;;;15.07;80.79;95586.75;4955984;28;20024;-63
2021/08/08 02:36:35;;;;;;;2.55;0.60;;;16.20;81.80;;;15.08;80.86;95586.50;4962389;28;20032;-64
2021/08/08 02:39:01;;;;;;;1.48;0.28;;;16.20;81.80;;;15.09;79.94;95597.91;4919062;29;20050;-64
2021/08/08 02:41:27;;;;;;;3.72;0.60;;;16.30;81.70;;;15.10;81.31;95597.69;4950116;28;20503;-63
2021/08/08 02:43:56;;;;;;;1.30;0.38;;;16.30;81.90;;;15.14;80.18;95593.53;4963233;28;20090;-64
2021/08/08 02:46:22;;;;;;;0.88;0.30;;;16.30;81.70;;;15.15;80.86;95586.38;4931699;29;20058;-63
2021/08/08 02:48:47;;;;;;;1.33;0.30;;;16.30;81.40;;;15.16;80.55;95588.84;4932562;29;20043;-64
2021/08/08 02:51:13;;;;;;;3.83;0.30;;;16.30;81.40;;;15.16;80.64;95604.72;4931584;28;20050;-63
2021/08/08 02:53:39;;;;;;;1.92;0.43;;;16.30;81.40;;;15.17;79.80;95595.75;4931572;29;20122;-64
2021/08/08 02:56:05;;;;;;;2.30;0.43;;;16.40;81.60;;;15.17;81.15;95601.06;4951687;28;20065;-63
2021/08/08 02:58:31;;;;;;;1.10;0.20;;;16.40;81.50;;;15.16;80.10;95604.72;4967321;28;20069;-63
2021/08/08 03:00:56;;;;;;;3.90;0.40;;;16.30;81.80;;;15.17;80.99;95606.34;4918415;29;20058;-64
2021/08/08 03:03:22;;;;;;;1.00;0.40;;;16.30;82.10;;;15.21;80.38;95604.03;4982063;28;20035;-63
2021/08/08 03:05:48;;;;;;;2.70;0.60;;;16.50;82.00;;;15.22;81.23;95603.81;4935720;29;20039;-64
2021/08/08 03:08:14;;;;;;;0.80;0.30;;;16.40;82.30;;;15.24;81.41;95614.97;4937445;29;20046;-63
2021/08/08 03:10:39;;;;;;;0.85;0.47;;;16.50;82.20;;;15.26;80.61;95625.34;4966259;28;20043;-63
2021/08/08 03:13:05;;;;;;;2.00;0.50;;;16.50;82.30;;;15.26;81.93;95626.16;4961061;28;20748;-63
2021/08/08 03:15:31;;;;;;;2.70;0.40;;;16.50;82.40;;;15.28;82.06;95628.56;4915812;28;20412;-63
2021/08/08 03:17:57;;;;;;;2.20;0.40;;;16.50;82.60;;;15.27;82.32;95638.38;4944464;28;20533;-64
2021/08/08 03:20:22;;;;;;;2.03;0.30;;;16.50;82.70;;;15.28;82.13;95650.56;4930826;28;20507;-63
2021/08/08 03:22:48;;;;;;;3.45;0.50;;;16.40;82.90;;;15.25;82.42;95645.75;4969534;28;20129;-63
2021/08/08 03:25:14;;;;;;;0.90;0.30;;;16.50;83.10;;;15.26;82.07;95650.00;4948178;28;20653;-63
2021/08/08 03:27:40;;;;;;;2.03;0.32;;;16.50;83.10;;;15.27;82.28;95653.47;4948457;28;20047;-63
2021/08/08 03:30:06;;;;;;;2.35;0.32;;;16.50;83.30;;;15.24;82.53;95659.22;4924598;28;20117;-63
2021/08/08 03:32:33;;;;;;;0.50;0.25;;;16.40;83.60;;;15.22;82.67;95662.09;4942169;28;20035;-63
2021/08/08 03:34:59;;;;;;;2.80;0.50;;;16.40;83.70;;;15.17;82.90;95661.97;4982208;28;20564;-63
2021/08/08 03:37:25;;;;;;;2.53;0.50;;;16.30;83.80;;;15.15;82.70;95658.72;4946632;28;20046;-64
2021/08/08 03:39:50;;;;;;;3.80;0.50;;;16.30;84.00;;;15.14;81.92;95665.06;4949637;28;20476;-63
2021/08/08 03:42:16;;;;;;;1.05;0.30;;;16.30;84.00;;;15.11;83.00;95676.13;4953861;28;20039;-63
2021/08/08 03:44:42;;;;;;;2.47;0.45;;;16.20;84.10;;;15.07;83.68;95672.31;4948727;28;20459;-64
2021/08/08 03:47:08;;;;;;;0.75;0.40;;;16.20;84.20;;;15.06;82.49;95680.47;4907920;28;20066;-66
2021/08/08 03:49:33;;;;;;;1.40;0.52;;;16.20;84.30;;;15.04;83.81;95670.13;4958519;28;20086;-63
2021/08/08 03:51:59;;;;;;;1.80;0.40;;;16.20;84.30;;;15.00;83.57;95680.38;4975979;28;20043;-63
2021/08/08 03:54:26;;;;;;;3.03;0.40;;;16.10;84.40;;;14.99;83.94;95688.53;4950712;28;20048;-64
2021/08/08 03:56:52;;;;;;;2.05;0.80;;;16.10;84.30;;;14.97;83.79;95690.59;4947604;28;20093;-63
2021/08/08 03:59:18;;;;;;;0.82;0.40;;;16.10;84.40;;;14.94;82.58;95701.66;4947872;28;20031;-64
2021/08/08 04:01:44;;;;;;;1.20;0.52;;;16.10;84.50;;;14.92;84.46;95709.78;4933670;28;20533;-63
2021/08/08 04:04:10;;;;;;;1.45;0.40;;;16.10;84.50;;;14.95;83.08;95711.22;4949137;28;20055;-64
2021/08/08 04:06:36;;;;;;;0.98;0.50;;;16.20;84.40;;;14.97;84.37;95706.50;4947320;28;20117;-63
2021/08/08 04:09:02;;;;;;;1.35;0.70;;;16.20;84.10;;;14.97;82.96;95712.59;4976529;28;20110;-63
2021/08/08 04:11:27;;;;;;;2.20;0.88;;;16.30;84.10;;;15.00;83.24;95716.63;4925194;28;20094;-63
2021/08/08 04:13:53;;;;;;;7.60;3.53;;;16.30;83.80;;;15.01;84.06;95723.56;4941655;28;20166;-63
2021/08/08 04:16:19;;;;;;;8.65;7.03;;;16.30;84.00;;;15.02;83.77;95719.88;4948813;28;20074;-64
2021/08/08 04:18:45;;;;;;;3.88;2.78;;;16.40;84.10;;;15.05;84.20;95721.25;4940932;28;20051;-63
2021/08/08 04:21:10;;;;;;;1.00;0.80;;;16.40;84.00;;;15.09;84.22;95720.56;4935027;28;20046;-64
2021/08/08 04:23:37;;;;;;;1.55;0.90;;;16.50;83.70;;;15.13;83.55;95727.03;4934241;29;20126;-63
2021/08/08 04:26:02;;;;;;;3.25;0.70;;;16.50;83.50;;;15.15;83.97;95735.56;4946482;28;20024;-63
2021/08/08 04:28:28;;;;;;;3.92;0.90;;;16.50;83.40;;;15.16;83.35;95731.06;4953181;28;20070;-63
2021/08/08 04:30:54;;;;;;;1.52;0.50;;;16.50;83.50;;;15.18;84.24;95736.97;4948959;28;20049;-63
2021/08/08 04:33:20;;;;;;;4.10;2.78;;;16.60;83.40;;;15.20;83.34;95738.34;4967692;28;20135;-64
2021/08/08 04:35:45;;;;;;;3.05;1.73;;;16.60;83.30;;;15.21;83.32;95724.06;4962983;28;20039;-63
2021/08/08 04:38:11;;;;;;;11.13;9.55;;;16.50;83.10;;;15.21;82.28;95729.38;4961794;28;20363;-63
2021/08/08 04:40:37;;;;;;;3.13;2.30;;;16.50;83.20;;;15.22;83.74;95736.28;4949022;28;20051;-63
2021/08/08 04:43:05;;;;;;;3.28;0.77;;;16.60;83.00;;;15.21;84.13;95729.38;4935828;29;20038;-63
2021/08/08 04:45:31;;;;;;;1.67;0.63;;;16.50;83.00;;;15.22;82.44;95730.97;4936218;28;20035;-63
2021/08/08 04:47:57;;;;;;;3.10;0.90;;;16.60;82.90;;;15.23;82.71;95740.53;4933057;28;20086;-63
2021/08/08 04:50:22;;;;;;;5.55;1.70;;;16.60;82.70;;;15.25;83.18;95750.91;4953938;28;20039;-64
2021/08/08 04:52:48;;;;;;;7.47;2.20;;;16.60;82.60;;;15.24;83.38;95749.31;4937510;28;20544;-64
2021/08/08 04:55:14;;;;;;;5.22;3.72;;;16.60;82.70;;;15.25;82.89;95750.91;4939857;28;20057;-64
2021/08/08 04:57:40;;;;;;;1.65;0.60;;;16.60;82.70;;;15.24;83.48;95755.41;4994822;28;20065;-63
2021/08/08 05:00:07;;;;;;;2.97;0.63;;;16.60;82.60;;;15.24;83.28;95744.81;4952485;28;20495;-64
2021/08/08 05:02:34;;;;;;;0.88;0.50;;;16.50;83.10;;;15.23;82.62;95747.69;4945125;28;20035;-64
2021/08/08 05:05:04;;;;;;;1.00;0.32;;;16.50;83.10;;;15.23;82.84;95750.34;4933044;28;20356;-66
2021/08/08 05:07:29;;;;;;;2.95;0.60;;;16.50;83.20;;;15.23;83.22;95756.44;4982783;28;20036;-65
2021/08/08 05:09:55;;;;;;;1.38;0.60;;;16.60;83.40;;;15.25;82.40;95751.72;4935661;28;20062;-66
2021/08/08 05:12:21;;;;;;;0.60;0.50;;;16.60;83.20;;;15.28;83.06;95745.16;4951987;28;20039;-65
2021/08/08 05:14:46;;;;;;;1.75;0.55;;;16.60;83.10;;;15.31;83.42;95744.69;4952174;28;20027;-66
2021/08/08 05:17:12;;;;;;;0.90;0.40;;;16.60;83.00;;;15.33;82.46;95738.13;4951558;28;20070;-65
2021/08/08 05:19:38;;;;;;;2.45;0.60;;;16.70;82.70;;;15.33;83.58;95754.03;4951535;28;20375;-66
2021/08/08 05:22:04;;;;;;;0.40;0.40;;;16.60;82.80;;;15.33;82.96;95748.75;4936007;28;20052;-64
2021/08/08 05:24:29;;;;;;;2.38;0.47;;;16.60;82.80;;;15.35;83.12;95750.34;4969771;28;20116;-63
2021/08/08 05:26:56;;;;;;;1.33;0.70;;;16.70;82.80;;;15.38;82.72;95749.91;4949093;28;20540;-64
2021/08/08 05:29:24;;;;;;;1.60;0.60;;;16.70;82.40;;;15.42;83.28;95756.38;4934921;28;20074;-63
2021/08/08 05:31:50;;;;;;;1.95;0.70;;;16.80;82.30;;;15.45;83.17;95755.94;4952034;28;20522;-63
2021/08/08 05:34:16;;;;;;;5.68;2.65;;;16.90;82.20;;;15.51;83.26;95762.97;4935823;29;20031;-63
2021/08/08 05:36:42;;;;;;;1.83;0.68;;;17.00;82.00;;;15.53;82.20;95764.34;4932755;28;20572;-63
2021/08/08 05:39:08;;;;;;;1.17;0.80;;;16.90;82.00;;;15.58;82.20;95766.31;4962497;28;20055;-63
2021/08/08 05:41:33;;;;;;;2.50;0.68;;;17.00;81.90;;;15.61;82.21;95761.41;4934542;28;20046;-63
2021/08/08 05:43:59;;;;;;;4.25;3.22;;;17.10;81.60;;;15.66;82.83;95759.91;4935501;28;20474;-64
2021/08/08 05:46:25;;;;;;;4.60;2.58;;;17.20;81.40;;;15.72;81.92;95757.13;4950994;28;20533;-63
2021/08/08 05:48:50;;;;;;;1.50;0.60;;;17.20;81.20;;;15.78;82.48;95760.72;4935965;28;20122;-63
2021/08/08 05:51:16;;;;;;;1.65;0.98;;;17.30;80.60;;;15.82;81.62;95762.66;4953831;28;20042;-63
2021/08/08 05:53:42;;;;;;;2.75;1.15;;;17.30;80.70;;;15.88;82.15;95767.06;4914744;28;20075;-63
2021/08/08 05:56:08;;;;;;;3.22;1.90;;;17.40;80.40;;;15.96;81.78;95770.41;4954429;28;20167;-62
2021/08/08 05:58:34;;;;;;;3.05;0.95;;;17.50;80.30;;;16.01;81.66;95771.34;4938230;28;20059;-62
2021/08/08 06:00:59;;;;;;;0.80;0.70;;;17.60;79.90;;;16.07;80.91;95774.91;4944794;28;20031;-63
2021/08/08 06:03:25;;;;;;;1.10;0.70;;;17.60;79.40;;;16.12;80.67;95773.19;4950891;28;20034;-62
2021/08/08 06:05:51;;;;;;;4.50;2.60;;;17.70;79.30;;;16.16;81.30;95778.84;4947735;28;20031;-62
2021/08/08 06:08:17;;;;;;;6.50;4.72;;;17.70;79.30;;;16.22;80.41;95775.25;4922135;28;20254;-62
2021/08/08 06:10:43;;;;;;;3.60;2.35;;;17.70;78.90;;;16.27;81.22;95770.03;4931933;28;20041;-65
2021/08/08 06:13:09;;;;;;;2.30;0.90;;;17.80;79.10;;;16.35;79.54;95767.06;4942266;28;20034;-70
2021/08/08 06:15:35;;;;;;;1.08;0.73;;;17.90;78.30;;;16.39;80.00;95781.47;4954548;28;20039;-62
2021/08/08 06:18:00;;;;;;;2.45;1.02;;;18.00;78.60;;;16.47;79.88;95753.75;4919243;29;20591;-63
2021/08/08 06:20:26;;;;;;;1.77;0.73;;;18.10;78.30;;;16.57;80.17;95714.16;4966536;28;20525;-66
2021/08/08 06:22:52;;;;;;;1.38;0.57;;;18.30;77.60;;;16.68;79.73;95770.94;4922761;28;20034;-65
2021/08/08 06:25:18;;;;;;;1.25;0.68;;;18.40;77.30;;;16.73;79.08;95779.00;4941362;28;20137;-64
2021/08/08 06:27:43;;;;;;;1.98;1.15;;;18.40;77.00;;;16.78;78.79;95779.94;4921098;28;20380;-65
2021/08/08 06:30:10;;;;;;;2.78;1.60;;;18.40;76.70;;;16.84;78.44;95788.81;4913826;29;20031;-65
2021/08/08 06:32:36;;;;;;;1.52;1.00;;;18.40;76.70;;;16.91;79.04;95786.81;4948374;28;20133;-66
2021/08/08 06:35:03;;;;;;;1.42;0.70;;;18.60;76.70;;;16.96;78.15;95791.41;4934700;28;20114;-66
2021/08/08 06:37:29;;;;;;;2.03;0.60;;;18.50;76.70;;;16.97;78.63;95785.84;4977861;28;20047;-65
2021/08/08 06:39:55;;;;;;;1.08;0.57;;;18.60;76.70;;;16.97;78.29;95793.81;4927610;29;20055;-63
2021/08/08 06:42:21;;;;;;;1.38;0.60;;;18.40;76.70;;;16.99;78.81;95785.66;4982960;28;20094;-63
2021/08/08 06:44:46;;;;;;;2.53;0.50;;;18.50;76.70;;;17.01;77.99;95787.03;4947397;28;20042;-64
2021/08/08 06:47:12;;;;;;;0.70;0.40;;;18.50;75.80;;;17.02;78.21;95787.84;4969196;28;20159;-65
2021/08/08 06:49:38;;;;;;;1.52;0.65;;;18.60;76.10;;;17.06;77.63;95789.78;4938703;28;20043;-65
2021/08/08 06:52:04;;;;;;;0.98;0.50;;;18.60;75.90;;;17.08;77.49;95785.03;4951905;28;20468;-67
2021/08/08 06:54:30;;;;;;;0.50;0.50;;;18.60;75.60;;;17.07;76.87;95788.72;4951249;28;20042;-65
2021/08/08 06:56:55;;;;;;;0.93;0.40;;;18.50;75.90;;;17.09;76.82;95786.63;4962838;28;20402;-65
2021/08/08 06:59:21;;;;;;;2.45;0.50;;;18.60;75.80;;;17.09;77.30;95789.28;4965438;28;20039;-65
2021/08/08 07:01:47;;;;;;;3.45;0.60;;;18.60;75.50;;;17.13;77.59;95800.25;4963310;28;20043;-64
2021/08/08 07:04:13;;;;;;;2.58;1.30;;;18.70;75.60;;;17.15;76.88;95791.00;4916965;29;20506;-65
2021/08/08 07:06:39;;;;;;;0.85;0.50;;;18.70;75.40;;;17.19;76.83;95787.84;4924724;28;20043;-67
2021/08/08 07:09:07;;;;;;;2.28;0.50;;;18.70;75.30;;;17.21;77.12;95791.13;4945339;28;20035;-67
2021/08/08 07:11:34;;;;;;;1.23;0.60;;;18.70;74.90;;;17.21;76.65;95796.44;4915323;28;20054;-65
2021/08/08 07:14:01;;;;;;;1.10;0.50;;;18.70;75.20;;;17.21;76.01;95807.06;4933966;28;20036;-65
2021/08/08 07:16:26;;;;;;;2.45;0.57;;;18.60;74.80;;;17.23;75.92;95803.13;4922742;28;20407;-67
2021/08/08 07:18:52;;;;;;;1.88;0.52;;;18.70;74.90;;;17.24;76.00;95801.25;4945007;28;20066;-64
2021/08/08 07:21:18;;;;;;;5.20;3.15;;;18.60;74.80;;;17.26;76.42;95799.16;4920170;28;20508;-64
2021/08/08 07:23:43;;;;;;;1.10;0.50;;;18.70;74.30;;;17.28;75.90;95808.53;4942970;28;20506;-65
2021/08/08 07:26:09;;;;;;;1.13;0.50;;;18.70;74.70;;;17.29;75.75;95804.81;4901072;29;20040;-66
2021/08/08 07:28:35;;;;;;;2.20;0.70;;;18.70;74.50;;;17.32;75.37;95809.66;4963272;28;20581;-67
2021/08/08 07:31:01;;;;;;;2.97;0.70;;;18.80;74.20;;;17.34;75.81;95806.75;4953007;28;20067;-67
2021/08/08 07:33:26;;;;;;;1.52;0.40;;;18.70;73.00;;;17.34;75.48;95807.56;4967126;28;20460;-66
2021/08/08 07:35:52;;;;;;;3.72;0.40;;;18.80;73.70;;;17.37;75.07;95801.75;4933440;29;20530;-67
2021/08/08 07:38:18;;;;;;;0.73;0.43;;;18.90;73.50;;;17.45;75.21;95796.06;4936683;28;20447;-67
2021/08/08 07:40:44;;;;;;;1.77;0.65;;;19.10;73.20;;;17.55;74.69;95787.47;4950759;28;20042;-66
2021/08/08 07:43:10;;;;;;;1.00;0.65;;;19.20;72.20;;;17.65;75.09;95784.97;4933274;28;20039;-71
2021/08/08 07:45:36;;;;;;;2.72;0.50;;;19.40;71.90;;;17.73;74.08;95789.13;4936915;28;20030;-67
2021/08/08 07:48:02;;;;;;;2.08;0.50;;;19.40;71.80;;;17.78;74.30;95802.50;4913306;29;20089;-64
2021/08/08 07:50:28;;;;;;;2.40;0.50;;;19.50;71.10;;;17.79;73.83;95803.31;4937518;28;20108;-66
2021/08/08 07:52:54;;;;;;;0.93;0.40;;;19.40;71.40;;;17.89;74.09;95800.81;4935936;29;20035;-66
2021/08/08 07:55:21;;;;;;;1.10;0.50;;;19.60;70.20;;;17.99;73.37;95803.63;4944276;28;20126;-66
2021/08/08 07:57:46;;;;;;;4.25;1.13;;;20.00;68.90;;;18.21;72.94;95807.16;4930417;29;20508;-65
2021/08/08 08:00:12;;;;;;;3.83;0.60;;;20.70;67.90;;;18.39;72.06;95807.97;4946623;28;20054;-66
2021/08/08 08:02:39;;;;;;;1.20;0.50;;;20.60;66.50;;;18.55;72.23;95807.09;4945024;28;20035;-66
2021/08/08 08:05:06;;;;;;;1.40;0.65;;;20.80;67.00;;;18.71;71.81;95811.63;4945556;28;20036;-65
2021/08/08 08:07:31;;;;;;;5.45;0.68;;;20.90;66.60;;;18.88;71.28;95803.56;4948398;28;20510;-64
2021/08/08 08:09:57;;;;;;;5.72;2.00;;;21.00;65.40;;;19.03;71.64;95803.75;4962031;28;20023;-65
2021/08/08 08:12:23;;;;;;;1.08;0.70;;;21.20;65.60;;;19.12;70.89;95804.13;4931766;28;20066;-65
2021/08/08 08:14:49;;;;;;;2.67;0.57;;;21.10;64.70;;;19.16;69.67;95799.91;4930242;29;20036;-64
2021/08/08 08:17:14;;;;;;;3.33;0.82;;;21.00;64.90;;;19.31;70.68;95789.41;4955848;28;20044;-64
2021/08/08 08:19:40;;;;;;;1.08;0.40;;;21.50;65.30;;;19.43;68.80;95792.69;4933919;28;20027;-65
2021/08/08 08:22:06;;;;;;;2.63;0.50;;;21.50;62.80;;;19.50;69.15;95795.19;4941439;28;20409;-64
2021/08/08 08:24:31;;;;;;;2.90;0.93;;;21.50;62.90;;;19.65;68.23;95799.88;4939132;28;20106;-63
2021/08/08 08:26:57;;;;;;;2.78;0.55;;;22.00;62.50;;;19.83;68.40;95797.66;4937654;28;20418;-64
2021/08/08 08:29:23;;;;;;;2.50;0.65;;;22.50;61.10;;;20.12;67.60;95806.13;4937556;28;20118;-62
2021/08/08 08:31:49;;;;;;;1.95;1.15;;;23.10;57.10;;;20.45;67.26;95805.06;4945006;29;20047;-64
2021/08/08 08:34:14;;;;;;;4.53;2.90;;;23.80;57.10;;;20.80;66.93;95815.13;4940831;28;20035;-65
2021/08/08 08:36:40;;;;;;;1.05;0.50;;;24.10;55.70;;;21.06;65.94;95807.25;4933638;28;20322;-64
2021/08/08 08:39:06;;;;;;;1.75;0.50;;;23.90;54.10;;;21.19;65.30;95806.75;4946033;28;20095;-63
2021/08/08 08:41:32;;;;;;;2.97;0.57;;;23.90;56.10;;;21.30;64.21;95799.59;4933145;28;20056;-63
2021/08/08 08:43:59;;;;;;;1.92;0.50;;;23.70;54.50;;;21.36;63.73;95809.25;4948819;28;20041;-63
2021/08/08 08:46:24;;;;;;;2.53;0.60;;;23.60;54.80;;;21.43;62.50;95803.63;4964519;28;20039;-63
2021/08/08 08:48:53;;;;;;;3.97;1.08;;;23.60;53.50;;;21.49;62.08;95807.91;4912001;28;20447;-62
2021/08/08 08:51:18;;;;;;;3.45;1.75;;;23.60;53.80;;;21.52;61.73;95810.09;4937400;28;20030;-62
2021/08/08 08:53:45;;;;;;;2.47;0.90;;;23.70;54.40;;;21.57;62.17;95815.44;4934181;28;20394;-66
2021/08/08 08:56:11;;;;;;;1.88;0.80;;;23.70;55.70;;;21.65;61.48;95820.25;4955069;28;20125;-63
2021/08/08 08:58:37;;;;;;;3.72;2.00;;;23.80;55.30;;;21.69;61.68;95818.66;4952698;28;20514;-64
2021/08/08 09:01:02;;;;;;;7.75;5.30;;;23.80;55.40;;;21.71;61.63;95821.88;4942631;28;20067;-64
2021/08/08 09:03:28;;;;;;;1.52;0.90;;;23.70;55.80;;;21.70;61.19;95821.06;4947236;28;20059;-65
2021/08/08 09:05:54;;;;;;;3.97;2.25;;;23.60;55.00;;;21.69;61.53;95814.09;4921006;29;20067;-66
2021/08/08 09:08:20;;;;;;;1.60;0.50;;;23.60;56.10;;;21.69;61.32;95808.75;4961091;28;20062;-67
2021/08/08 09:10:58;;;;;;;1.98;0.60;;;23.60;55.60;;;21.73;61.56;95803.69;4945730;28;20059;-67
2021/08/08 09:13:24;;;;;;;3.00;1.30;;;23.70;55.70;;;21.74;61.21;95799.94;4940216;28;20566;-67
2021/08/08 09:15:50;;;;;;;1.48;0.60;;;23.80;55.80;;;21.83;61.20;95802.88;4941067;28;20039;-66
2021/08/08 09:18:17;;;;;;;2.58;0.60;;;24.00;55.30;;;21.87;60.37;95810.13;4951962;28;20122;-66
2021/08/08 09:20:44;;;;;;;1.70;0.50;;;23.70;53.90;;;21.87;60.34;95812.78;4959235;28;20064;-66
2021/08/08 09:23:10;;;;;;;1.95;0.95;;;23.80;54.30;;;21.86;60.25;95807.72;4922723;28;20027;-67
2021/08/08 09:25:37;;;;;;;4.65;1.50;;;23.80;54.20;;;21.93;59.33;95808.22;4957979;28;20039;-65
2021/08/08 09:28:11;;;;;;;2.20;1.25;;;24.10;52.50;;;22.01;56.50;95805.84;4983472;28;20118;-66
2021/08/08 09:30:41;;;;;;;3.33;1.15;;;24.10;51.70;;;22.13;57.59;95802.91;4923413;29;20038;-64
2021/08/08 09:33:09;;;;;;;1.95;0.52;;;24.50;51.90;;;22.31;58.18;95798.88;4938123;29;20613;-64
2021/08/08 09:35:37;;;;;;;2.65;0.40;;;24.80;50.50;;;22.47;57.47;95808.50;4947647;28;20055;-68
2021/08/08 09:38:07;;;;;;;1.00;0.47;;;24.80;47.90;;;22.44;56.22;95809.06;4953898;28;20114;-65
2021/08/08 09:40:36;;;;;;;1.83;0.60;;;24.50;49.90;;;22.38;56.39;95807.44;4953696;28;20499;-65
2021/08/08 09:43:04;;;;;;;2.00;1.00;;;24.40;50.30;;;22.49;56.95;95817.09;4924903;28;20046;-64
2021/08/08 09:45:43;;;;;;;2.13;1.23;;;24.80;50.30;;;22.76;56.11;95815.94;4931999;28;20086;-65
2021/08/08 09:48:11;;;;;;;2.33;1.23;;;25.60;49.80;;;23.08;56.83;95818.25;4948344;28;20442;-66
2021/08/08 09:50:42;;;;;;;1.88;0.90;;;26.10;48.50;;;23.43;54.98;95820.00;4963327;28;20035;-65
2021/08/08 09:53:15;;;;;;;2.95;0.90;;;26.60;47.10;;;23.67;55.22;95815.56;4936262;28;20376;-65
2021/08/08 09:55:41;;;;;;;2.88;0.50;;;26.60;45.30;;;23.84;55.58;95809.84;4953626;28;20038;-64
2021/08/08 09:58:20;;;;;;;1.08;0.40;;;26.60;46.60;;;24.07;52.41;95811.00;4938587;28;20058;-66
2021/08/08 10:00:46;;;;;;;3.55;1.90;;;27.10;45.00;;;24.43;54.29;95812.31;4952790;28;20043;-67
2021/08/08 10:03:13;;;;;;;1.63;0.63;;;28.00;42.80;;;24.77;53.33;95816.81;4952610;28;20063;-68
2021/08/08 10:05:40;;;;;;;2.80;0.60;;;28.10;42.80;;;24.95;53.20;95823.34;4961488;28;20035;-63
2021/08/08 10:08:21;;;;;;;6.03;3.90;;;28.00;43.20;;;24.99;48.81;95822.53;4970715;28;20074;-64
2021/08/08 10:10:49;;;;;;;2.03;1.02;;;27.80;41.50;;;25.11;51.17;95822.09;4966429;28;20031;-66
2021/08/08 10:13:32;;;;;;;3.47;0.50;;;28.00;40.20;;;25.34;48.26;95815.06;4929200;28;20026;-65
2021/08/08 10:15:59;;;;;;;1.95;0.63;;;28.60;40.20;;;25.52;50.80;95827.75;4965428;28;20035;-64
2021/08/08 10:18:32;;;;;;;1.65;0.60;;;28.60;40.80;;;25.72;47.90;95828.59;4959678;28;20043;-65